sensor_id;sensor_type;location;lat;lon;timestamp;P1;durP1;ratioP1;P2;durP2;ratioP2
35891;SDS011;21993;42.672;23.296;2023-07-31T00:01:43;2.77;;;2.57;;
35891;SDS011;21993;42.672;23.296;2023-07-31T00:04:08;3.47;;;3.17;;
35891;SDS011;21993;42.672;23.296;2023-07-31T00:06:34;4.53;;;3.17;;
35891;SDS011;21993;42.672;23.296;2023-07-31T00:08:59;3.00;;;2.80;;
35891;SDS011;21993;42.672;23.296;2023-07-31T00:11:25;3.67;;;3.33;;
35891;SDS011;21993;42.672;23.296;2023-07-31T00:13:52;3.47;;;3.10;;
35891;SDS011;21993;42.672;23.296;2023-07-31T00:16:18;3.30;;;2.90;;
35891;SDS011;21993;42.672;23.296;2023-07-31T00:18:44;3.37;;;2.90;;
35891;SDS011;21993;42.672;23.296;2023-07-31T00:21:10;4.77;;;3.00;;
35891;SDS011;21993;42.672;23.296;2023-07-31T00:23:35;4.03;;;3.40;;
35891;SDS011;21993;42.672;23.296;2023-07-31T00:26:00;3.67;;;3.23;;
35891;SDS011;21993;42.672;23.296;2023-07-31T00:28:26;5.97;;;3.50;;
35891;SDS011;21993;42.672;23.296;2023-07-31T00:30:52;4.37;;;3.97;;
35891;SDS011;21993;42.672;23.296;2023-07-31T00:33:18;4.10;;;3.70;;
35891;SDS011;21993;42.672;23.296;2023-07-31T00:35:43;4.37;;;3.60;;
35891;SDS011;21993;42.672;23.296;2023-07-31T00:38:08;3.80;;;3.50;;
35891;SDS011;21993;42.672;23.296;2023-07-31T00:40:34;5.37;;;3.50;;
35891;SDS011;21993;42.672;23.296;2023-07-31T00:43:01;5.90;;;4.30;;
35891;SDS011;21993;42.672;23.296;2023-07-31T00:45:28;4.40;;;4.00;;
35891;SDS011;21993;42.672;23.296;2023-07-31T00:47:53;4.30;;;3.90;;
35891;SDS011;21993;42.672;23.296;2023-07-31T00:50:19;6.73;;;4.30;;
35891;SDS011;21993;42.672;23.296;2023-07-31T00:52:44;5.70;;;4.90;;
35891;SDS011;21993;42.672;23.296;2023-07-31T00:55:10;5.03;;;3.83;;
35891;SDS011;21993;42.672;23.296;2023-07-31T00:57:36;5.13;;;4.63;;
35891;SDS011;21993;42.672;23.296;2023-07-31T01:00:03;5.53;;;4.37;;
35891;SDS011;21993;42.672;23.296;2023-07-31T01:02:29;5.07;;;4.57;;
35891;SDS011;21993;42.672;23.296;2023-07-31T01:04:55;5.03;;;4.53;;
35891;SDS011;21993;42.672;23.296;2023-07-31T01:10:02;7.10;;;5.57;;
35891;SDS011;21993;42.672;23.296;2023-07-31T01:12:31;8.70;;;5.63;;
35891;SDS011;21993;42.672;23.296;2023-07-31T01:15:03;8.60;;;5.87;;
35891;SDS011;21993;42.672;23.296;2023-07-31T01:17:30;6.60;;;5.67;;
35891;SDS011;21993;42.672;23.296;2023-07-31T01:19:57;6.87;;;5.87;;
35891;SDS011;21993;42.672;23.296;2023-07-31T01:22:41;8.50;;;6.37;;
35891;SDS011;21993;42.672;23.296;2023-07-31T01:28:13;10.97;;;7.83;;
35891;SDS011;21993;42.672;23.296;2023-07-31T01:30:43;9.50;;;7.53;;
35891;SDS011;21993;42.672;23.296;2023-07-31T01:33:12;8.83;;;7.90;;
35891;SDS011;21993;42.672;23.296;2023-07-31T01:35:41;10.40;;;9.20;;
35891;SDS011;21993;42.672;23.296;2023-07-31T01:38:08;11.17;;;9.13;;
35891;SDS011;21993;42.672;23.296;2023-07-31T01:40:34;15.77;;;10.20;;
35891;SDS011;21993;42.672;23.296;2023-07-31T01:42:59;13.83;;;10.40;;
35891;SDS011;21993;42.672;23.296;2023-07-31T01:45:25;15.27;;;10.93;;
35891;SDS011;21993;42.672;23.296;2023-07-31T01:47:50;12.80;;;11.23;;
35891;SDS011;21993;42.672;23.296;2023-07-31T01:50:16;15.43;;;11.77;;
35891;SDS011;21993;42.672;23.296;2023-07-31T01:52:41;13.93;;;11.20;;
35891;SDS011;21993;42.672;23.296;2023-07-31T01:55:06;14.87;;;11.47;;
35891;SDS011;21993;42.672;23.296;2023-07-31T01:57:32;17.83;;;13.17;;
35891;SDS011;21993;42.672;23.296;2023-07-31T01:59:57;16.23;;;12.30;;
35891;SDS011;21993;42.672;23.296;2023-07-31T02:02:23;16.23;;;11.27;;
35891;SDS011;21993;42.672;23.296;2023-07-31T02:04:48;17.30;;;13.20;;
35891;SDS011;21993;42.672;23.296;2023-07-31T02:07:14;17.40;;;13.07;;
35891;SDS011;21993;42.672;23.296;2023-07-31T02:09:39;18.33;;;13.13;;
35891;SDS011;21993;42.672;23.296;2023-07-31T02:12:05;18.33;;;13.37;;
35891;SDS011;21993;42.672;23.296;2023-07-31T02:14:33;18.20;;;13.60;;
35891;SDS011;21993;42.672;23.296;2023-07-31T02:16:59;18.67;;;14.43;;
35891;SDS011;21993;42.672;23.296;2023-07-31T02:19:24;15.27;;;12.30;;
35891;SDS011;21993;42.672;23.296;2023-07-31T02:21:49;16.50;;;13.80;;
35891;SDS011;21993;42.672;23.296;2023-07-31T02:24:15;18.07;;;14.10;;
35891;SDS011;21993;42.672;23.296;2023-07-31T02:26:40;16.00;;;13.37;;
35891;SDS011;21993;42.672;23.296;2023-07-31T02:29:07;18.47;;;14.07;;
35891;SDS011;21993;42.672;23.296;2023-07-31T02:31:32;17.13;;;13.33;;
35891;SDS011;21993;42.672;23.296;2023-07-31T02:33:58;14.70;;;12.00;;
35891;SDS011;21993;42.672;23.296;2023-07-31T02:36:23;16.97;;;13.37;;
35891;SDS011;21993;42.672;23.296;2023-07-31T02:38:49;15.80;;;12.80;;
35891;SDS011;21993;42.672;23.296;2023-07-31T02:41:14;20.43;;;14.87;;
35891;SDS011;21993;42.672;23.296;2023-07-31T02:43:39;18.07;;;13.70;;
35891;SDS011;21993;42.672;23.296;2023-07-31T02:46:05;18.43;;;13.53;;
35891;SDS011;21993;42.672;23.296;2023-07-31T02:48:31;17.93;;;13.87;;
35891;SDS011;21993;42.672;23.296;2023-07-31T02:50:56;16.87;;;12.97;;
35891;SDS011;21993;42.672;23.296;2023-07-31T02:53:22;18.33;;;13.63;;
35891;SDS011;21993;42.672;23.296;2023-07-31T02:55:48;16.50;;;12.57;;
35891;SDS011;21993;42.672;23.296;2023-07-31T02:58:13;19.53;;;13.40;;
35891;SDS011;21993;42.672;23.296;2023-07-31T03:00:45;18.00;;;14.23;;
35891;SDS011;21993;42.672;23.296;2023-07-31T03:03:10;19.13;;;13.73;;
35891;SDS011;21993;42.672;23.296;2023-07-31T03:05:36;18.67;;;13.37;;
35891;SDS011;21993;42.672;23.296;2023-07-31T03:08:01;18.90;;;14.20;;
35891;SDS011;21993;42.672;23.296;2023-07-31T03:10:27;16.80;;;13.73;;
35891;SDS011;21993;42.672;23.296;2023-07-31T03:12:52;17.63;;;12.83;;
35891;SDS011;21993;42.672;23.296;2023-07-31T03:15:18;16.97;;;13.57;;
35891;SDS011;21993;42.672;23.296;2023-07-31T03:17:43;16.43;;;13.30;;
35891;SDS011;21993;42.672;23.296;2023-07-31T03:20:09;20.20;;;14.43;;
35891;SDS011;21993;42.672;23.296;2023-07-31T03:22:35;18.23;;;13.53;;
35891;SDS011;21993;42.672;23.296;2023-07-31T03:25:01;18.17;;;14.40;;
35891;SDS011;21993;42.672;23.296;2023-07-31T03:27:27;18.60;;;14.07;;
35891;SDS011;21993;42.672;23.296;2023-07-31T03:29:52;19.73;;;13.80;;
35891;SDS011;21993;42.672;23.296;2023-07-31T03:32:18;18.57;;;13.47;;
35891;SDS011;21993;42.672;23.296;2023-07-31T03:34:43;15.97;;;13.47;;
35891;SDS011;21993;42.672;23.296;2023-07-31T03:37:09;17.80;;;13.70;;
35891;SDS011;21993;42.672;23.296;2023-07-31T03:39:34;20.40;;;15.03;;
35891;SDS011;21993;42.672;23.296;2023-07-31T03:42:00;19.37;;;15.07;;
35891;SDS011;21993;42.672;23.296;2023-07-31T03:44:25;20.60;;;15.03;;
35891;SDS011;21993;42.672;23.296;2023-07-31T03:46:51;19.17;;;13.73;;
35891;SDS011;21993;42.672;23.296;2023-07-31T03:49:16;19.33;;;14.57;;
35891;SDS011;21993;42.672;23.296;2023-07-31T03:51:42;18.53;;;13.60;;
35891;SDS011;21993;42.672;23.296;2023-07-31T03:54:07;20.03;;;14.20;;
35891;SDS011;21993;42.672;23.296;2023-07-31T03:56:33;19.37;;;15.30;;
35891;SDS011;21993;42.672;23.296;2023-07-31T03:58:58;19.80;;;14.00;;
35891;SDS011;21993;42.672;23.296;2023-07-31T04:01:24;23.37;;;14.93;;
35891;SDS011;21993;42.672;23.296;2023-07-31T04:03:49;22.47;;;14.83;;
35891;SDS011;21993;42.672;23.296;2023-07-31T04:06:15;22.97;;;15.10;;
35891;SDS011;21993;42.672;23.296;2023-07-31T04:08:43;25.47;;;15.43;;
35891;SDS011;21993;42.672;23.296;2023-07-31T04:11:09;22.20;;;15.73;;
35891;SDS011;21993;42.672;23.296;2023-07-31T04:13:35;21.83;;;14.70;;
35891;SDS011;21993;42.672;23.296;2023-07-31T04:16:00;21.63;;;16.20;;
35891;SDS011;21993;42.672;23.296;2023-07-31T04:18:26;21.27;;;14.63;;
35891;SDS011;21993;42.672;23.296;2023-07-31T04:20:51;21.20;;;14.93;;
35891;SDS011;21993;42.672;23.296;2023-07-31T04:23:17;21.60;;;15.57;;
35891;SDS011;21993;42.672;23.296;2023-07-31T04:25:42;21.23;;;15.40;;
35891;SDS011;21993;42.672;23.296;2023-07-31T04:28:07;21.77;;;13.97;;
35891;SDS011;21993;42.672;23.296;2023-07-31T04:30:33;22.73;;;15.50;;
35891;SDS011;21993;42.672;23.296;2023-07-31T04:32:58;19.80;;;14.53;;
35891;SDS011;21993;42.672;23.296;2023-07-31T04:35:24;18.73;;;14.13;;
35891;SDS011;21993;42.672;23.296;2023-07-31T04:37:49;20.70;;;14.27;;
35891;SDS011;21993;42.672;23.296;2023-07-31T04:40:15;21.20;;;13.83;;
35891;SDS011;21993;42.672;23.296;2023-07-31T04:42:41;22.70;;;14.87;;
35891;SDS011;21993;42.672;23.296;2023-07-31T04:45:07;20.83;;;15.00;;
35891;SDS011;21993;42.672;23.296;2023-07-31T04:47:33;23.27;;;14.60;;
35891;SDS011;21993;42.672;23.296;2023-07-31T04:49:59;21.50;;;15.00;;
35891;SDS011;21993;42.672;23.296;2023-07-31T04:52:24;18.70;;;13.93;;
35891;SDS011;21993;42.672;23.296;2023-07-31T04:54:49;20.93;;;14.10;;
35891;SDS011;21993;42.672;23.296;2023-07-31T04:57:15;23.90;;;15.03;;
35891;SDS011;21993;42.672;23.296;2023-07-31T04:59:40;21.83;;;14.27;;
35891;SDS011;21993;42.672;23.296;2023-07-31T05:02:07;20.33;;;14.33;;
35891;SDS011;21993;42.672;23.296;2023-07-31T05:04:33;19.60;;;13.70;;
35891;SDS011;21993;42.672;23.296;2023-07-31T05:06:59;17.73;;;13.30;;
35891;SDS011;21993;42.672;23.296;2023-07-31T05:09:24;21.03;;;14.03;;
35891;SDS011;21993;42.672;23.296;2023-07-31T05:11:50;17.27;;;12.97;;
35891;SDS011;21993;42.672;23.296;2023-07-31T05:14:15;18.03;;;13.33;;
35891;SDS011;21993;42.672;23.296;2023-07-31T05:16:41;18.57;;;11.70;;
35891;SDS011;21993;42.672;23.296;2023-07-31T05:19:06;16.17;;;12.70;;
35891;SDS011;21993;42.672;23.296;2023-07-31T05:21:32;18.70;;;12.70;;
35891;SDS011;21993;42.672;23.296;2023-07-31T05:23:57;18.60;;;12.90;;
35891;SDS011;21993;42.672;23.296;2023-07-31T05:26:22;15.43;;;11.43;;
35891;SDS011;21993;42.672;23.296;2023-07-31T05:28:48;16.80;;;11.57;;
35891;SDS011;21993;42.672;23.296;2023-07-31T05:31:14;14.97;;;11.60;;
35891;SDS011;21993;42.672;23.296;2023-07-31T05:33:39;15.57;;;11.87;;
35891;SDS011;21993;42.672;23.296;2023-07-31T05:36:04;14.07;;;11.43;;
35891;SDS011;21993;42.672;23.296;2023-07-31T05:38:30;11.90;;;9.80;;
35891;SDS011;21993;42.672;23.296;2023-07-31T05:40:55;16.20;;;9.43;;
35891;SDS011;21993;42.672;23.296;2023-07-31T05:43:21;10.37;;;8.80;;
35891;SDS011;21993;42.672;23.296;2023-07-31T05:45:46;12.53;;;10.03;;
35891;SDS011;21993;42.672;23.296;2023-07-31T05:48:12;11.20;;;9.00;;
35891;SDS011;21993;42.672;23.296;2023-07-31T05:50:37;10.73;;;8.30;;
35891;SDS011;21993;42.672;23.296;2023-07-31T05:53:04;10.57;;;7.53;;
35891;SDS011;21993;42.672;23.296;2023-07-31T05:55:30;10.03;;;7.50;;
35891;SDS011;21993;42.672;23.296;2023-07-31T05:57:56;9.00;;;6.93;;
35891;SDS011;21993;42.672;23.296;2023-07-31T06:00:21;8.70;;;6.47;;
35891;SDS011;21993;42.672;23.296;2023-07-31T06:02:47;9.30;;;6.23;;
35891;SDS011;21993;42.672;23.296;2023-07-31T06:05:13;7.90;;;5.70;;
35891;SDS011;21993;42.672;23.296;2023-07-31T06:07:38;9.53;;;5.40;;
35891;SDS011;21993;42.672;23.296;2023-07-31T06:10:04;6.07;;;5.30;;
35891;SDS011;21993;42.672;23.296;2023-07-31T06:12:34;6.17;;;4.97;;
35891;SDS011;21993;42.672;23.296;2023-07-31T06:15:00;5.97;;;4.20;;
35891;SDS011;21993;42.672;23.296;2023-07-31T06:17:26;5.33;;;4.40;;
35891;SDS011;21993;42.672;23.296;2023-07-31T06:19:52;7.43;;;4.53;;
35891;SDS011;21993;42.672;23.296;2023-07-31T06:22:17;5.23;;;4.50;;
35891;SDS011;21993;42.672;23.296;2023-07-31T06:24:43;4.70;;;4.10;;
35891;SDS011;21993;42.672;23.296;2023-07-31T06:27:09;5.10;;;4.37;;
35891;SDS011;21993;42.672;23.296;2023-07-31T06:29:35;6.37;;;4.30;;
35891;SDS011;21993;42.672;23.296;2023-07-31T06:32:00;5.37;;;4.30;;
35891;SDS011;21993;42.672;23.296;2023-07-31T06:34:26;6.37;;;4.17;;
35891;SDS011;21993;42.672;23.296;2023-07-31T06:36:51;5.43;;;4.13;;
35891;SDS011;21993;42.672;23.296;2023-07-31T06:39:17;5.07;;;3.80;;
35891;SDS011;21993;42.672;23.296;2023-07-31T06:41:44;6.57;;;4.43;;
35891;SDS011;21993;42.672;23.296;2023-07-31T06:44:09;6.43;;;4.20;;
35891;SDS011;21993;42.672;23.296;2023-07-31T06:46:36;5.17;;;4.67;;
35891;SDS011;21993;42.672;23.296;2023-07-31T06:49:02;6.30;;;5.17;;
35891;SDS011;21993;42.672;23.296;2023-07-31T06:51:28;4.37;;;3.87;;
35891;SDS011;21993;42.672;23.296;2023-07-31T06:53:56;6.33;;;4.30;;
35891;SDS011;21993;42.672;23.296;2023-07-31T06:56:21;4.20;;;3.60;;
35891;SDS011;21993;42.672;23.296;2023-07-31T06:58:47;5.20;;;3.77;;
35891;SDS011;21993;42.672;23.296;2023-07-31T07:01:12;4.47;;;3.43;;
35891;SDS011;21993;42.672;23.296;2023-07-31T07:03:38;4.00;;;3.60;;
35891;SDS011;21993;42.672;23.296;2023-07-31T07:06:03;3.73;;;3.40;;
35891;SDS011;21993;42.672;23.296;2023-07-31T07:08:29;4.37;;;3.63;;
35891;SDS011;21993;42.672;23.296;2023-07-31T07:10:54;5.00;;;4.03;;
35891;SDS011;21993;42.672;23.296;2023-07-31T07:13:21;4.43;;;3.27;;
35891;SDS011;21993;42.672;23.296;2023-07-31T07:15:50;3.93;;;3.10;;
35891;SDS011;21993;42.672;23.296;2023-07-31T07:18:16;3.60;;;3.17;;
35891;SDS011;21993;42.672;23.296;2023-07-31T07:20:51;3.80;;;2.93;;
35891;SDS011;21993;42.672;23.296;2023-07-31T07:23:18;3.23;;;2.90;;
35891;SDS011;21993;42.672;23.296;2023-07-31T07:25:44;4.10;;;3.10;;
35891;SDS011;21993;42.672;23.296;2023-07-31T07:28:10;4.43;;;3.03;;
35891;SDS011;21993;42.672;23.296;2023-07-31T07:30:36;3.23;;;2.80;;
35891;SDS011;21993;42.672;23.296;2023-07-31T07:33:01;4.60;;;2.77;;
35891;SDS011;21993;42.672;23.296;2023-07-31T07:35:27;3.43;;;3.00;;
35891;SDS011;21993;42.672;23.296;2023-07-31T07:37:52;5.47;;;3.33;;
35891;SDS011;21993;42.672;23.296;2023-07-31T07:40:18;3.23;;;2.90;;
35891;SDS011;21993;42.672;23.296;2023-07-31T07:42:44;5.70;;;3.17;;
35891;SDS011;21993;42.672;23.296;2023-07-31T07:45:09;5.03;;;3.50;;
35891;SDS011;21993;42.672;23.296;2023-07-31T07:47:35;3.80;;;3.23;;
35891;SDS011;21993;42.672;23.296;2023-07-31T07:50:00;3.90;;;3.40;;
35891;SDS011;21993;42.672;23.296;2023-07-31T07:52:26;6.77;;;3.13;;
35891;SDS011;21993;42.672;23.296;2023-07-31T07:54:51;2.67;;;2.47;;
35891;SDS011;21993;42.672;23.296;2023-07-31T07:57:17;3.17;;;2.60;;
35891;SDS011;21993;42.672;23.296;2023-07-31T07:59:42;3.73;;;2.73;;
35891;SDS011;21993;42.672;23.296;2023-07-31T08:02:07;3.07;;;2.77;;
35891;SDS011;21993;42.672;23.296;2023-07-31T08:04:33;2.83;;;2.63;;
35891;SDS011;21993;42.672;23.296;2023-07-31T08:06:58;3.30;;;2.70;;
35891;SDS011;21993;42.672;23.296;2023-07-31T08:09:24;4.60;;;2.80;;
35891;SDS011;21993;42.672;23.296;2023-07-31T08:11:49;3.40;;;3.10;;
35891;SDS011;21993;42.672;23.296;2023-07-31T08:14:14;5.03;;;3.50;;
35891;SDS011;21993;42.672;23.296;2023-07-31T08:16:42;3.10;;;2.73;;
35891;SDS011;21993;42.672;23.296;2023-07-31T08:19:08;5.17;;;3.20;;
35891;SDS011;21993;42.672;23.296;2023-07-31T08:21:33;5.17;;;3.30;;
35891;SDS011;21993;42.672;23.296;2023-07-31T08:23:58;4.30;;;3.20;;
35891;SDS011;21993;42.672;23.296;2023-07-31T08:26:24;3.53;;;3.07;;
35891;SDS011;21993;42.672;23.296;2023-07-31T08:28:49;3.80;;;3.50;;
35891;SDS011;21993;42.672;23.296;2023-07-31T08:31:15;4.27;;;3.30;;
35891;SDS011;21993;42.672;23.296;2023-07-31T08:33:40;7.50;;;3.43;;
35891;SDS011;21993;42.672;23.296;2023-07-31T08:36:05;3.80;;;3.07;;
35891;SDS011;21993;42.672;23.296;2023-07-31T08:38:31;4.23;;;3.23;;
35891;SDS011;21993;42.672;23.296;2023-07-31T08:40:57;4.23;;;3.33;;
35891;SDS011;21993;42.672;23.296;2023-07-31T08:43:25;3.47;;;3.17;;
35891;SDS011;21993;42.672;23.296;2023-07-31T08:45:51;5.23;;;3.03;;
35891;SDS011;21993;42.672;23.296;2023-07-31T08:48:17;3.43;;;3.10;;
35891;SDS011;21993;42.672;23.296;2023-07-31T08:50:44;3.07;;;2.77;;
35891;SDS011;21993;42.672;23.296;2023-07-31T08:53:10;3.50;;;3.20;;
35891;SDS011;21993;42.672;23.296;2023-07-31T08:55:36;3.63;;;2.63;;
35891;SDS011;21993;42.672;23.296;2023-07-31T08:58:02;3.17;;;2.87;;
35891;SDS011;21993;42.672;23.296;2023-07-31T09:00:29;3.20;;;2.90;;
35891;SDS011;21993;42.672;23.296;2023-07-31T09:03:03;3.27;;;3.00;;
35891;SDS011;21993;42.672;23.296;2023-07-31T09:05:37;4.10;;;3.13;;
35891;SDS011;21993;42.672;23.296;2023-07-31T09:08:06;4.80;;;2.83;;
35891;SDS011;21993;42.672;23.296;2023-07-31T09:10:34;4.27;;;3.20;;
35891;SDS011;21993;42.672;23.296;2023-07-31T09:12:59;5.87;;;2.90;;
35891;SDS011;21993;42.672;23.296;2023-07-31T09:15:25;3.33;;;2.57;;
35891;SDS011;21993;42.672;23.296;2023-07-31T09:18:02;4.70;;;2.67;;
35891;SDS011;21993;42.672;23.296;2023-07-31T09:20:28;2.70;;;2.50;;
35891;SDS011;21993;42.672;23.296;2023-07-31T09:22:54;3.00;;;2.70;;
35891;SDS011;21993;42.672;23.296;2023-07-31T09:25:22;4.33;;;3.50;;
35891;SDS011;21993;42.672;23.296;2023-07-31T09:27:53;4.63;;;3.17;;
35891;SDS011;21993;42.672;23.296;2023-07-31T09:30:22;2.80;;;2.60;;
35891;SDS011;21993;42.672;23.296;2023-07-31T09:32:48;3.53;;;3.23;;
35891;SDS011;21993;42.672;23.296;2023-07-31T09:37:40;4.23;;;3.50;;
35891;SDS011;21993;42.672;23.296;2023-07-31T09:40:06;3.23;;;3.00;;
35891;SDS011;21993;42.672;23.296;2023-07-31T09:42:32;4.50;;;3.30;;
35891;SDS011;21993;42.672;23.296;2023-07-31T09:45:09;8.07;;;3.80;;
35891;SDS011;21993;42.672;23.296;2023-07-31T09:47:35;5.47;;;3.00;;
35891;SDS011;21993;42.672;23.296;2023-07-31T09:50:00;5.03;;;3.30;;
35891;SDS011;21993;42.672;23.296;2023-07-31T09:52:26;6.90;;;3.00;;
35891;SDS011;21993;42.672;23.296;2023-07-31T09:54:52;4.03;;;3.17;;
35891;SDS011;21993;42.672;23.296;2023-07-31T09:57:17;2.23;;;2.03;;
35891;SDS011;21993;42.672;23.296;2023-07-31T09:59:47;5.10;;;2.93;;
35891;SDS011;21993;42.672;23.296;2023-07-31T10:02:15;3.67;;;2.40;;
35891;SDS011;21993;42.672;23.296;2023-07-31T10:04:45;2.73;;;2.40;;
35891;SDS011;21993;42.672;23.296;2023-07-31T10:07:16;5.03;;;2.80;;
35891;SDS011;21993;42.672;23.296;2023-07-31T10:09:44;4.07;;;2.80;;
35891;SDS011;21993;42.672;23.296;2023-07-31T10:12:10;3.33;;;2.33;;
35891;SDS011;21993;42.672;23.296;2023-07-31T10:14:40;4.27;;;2.67;;
35891;SDS011;21993;42.672;23.296;2023-07-31T10:17:07;3.40;;;2.50;;
35891;SDS011;21993;42.672;23.296;2023-07-31T10:19:34;3.20;;;2.90;;
35891;SDS011;21993;42.672;23.296;2023-07-31T10:22:00;2.50;;;2.30;;
35891;SDS011;21993;42.672;23.296;2023-07-31T10:24:28;3.47;;;2.30;;
35891;SDS011;21993;42.672;23.296;2023-07-31T10:26:54;2.60;;;2.40;;
35891;SDS011;21993;42.672;23.296;2023-07-31T10:29:23;2.60;;;2.40;;
35891;SDS011;21993;42.672;23.296;2023-07-31T10:31:49;2.70;;;2.50;;
35891;SDS011;21993;42.672;23.296;2023-07-31T10:34:16;4.70;;;2.73;;
35891;SDS011;21993;42.672;23.296;2023-07-31T10:36:42;2.30;;;2.10;;
35891;SDS011;21993;42.672;23.296;2023-07-31T10:39:32;2.93;;;2.30;;
35891;SDS011;21993;42.672;23.296;2023-07-31T10:42:09;2.30;;;2.10;;
35891;SDS011;21993;42.672;23.296;2023-07-31T10:44:36;2.60;;;2.40;;
35891;SDS011;21993;42.672;23.296;2023-07-31T10:47:01;2.73;;;2.50;;
35891;SDS011;21993;42.672;23.296;2023-07-31T10:49:27;2.20;;;2.00;;
35891;SDS011;21993;42.672;23.296;2023-07-31T10:51:56;2.43;;;2.17;;
35891;SDS011;21993;42.672;23.296;2023-07-31T10:54:22;2.23;;;2.07;;
35891;SDS011;21993;42.672;23.296;2023-07-31T10:56:50;3.10;;;2.67;;
35891;SDS011;21993;42.672;23.296;2023-07-31T10:59:15;3.50;;;2.17;;
35891;SDS011;21993;42.672;23.296;2023-07-31T11:01:52;2.73;;;2.40;;
35891;SDS011;21993;42.672;23.296;2023-07-31T11:04:24;2.47;;;2.27;;
35891;SDS011;21993;42.672;23.296;2023-07-31T11:06:56;3.73;;;2.53;;
35891;SDS011;21993;42.672;23.296;2023-07-31T11:09:24;2.33;;;2.13;;
35891;SDS011;21993;42.672;23.296;2023-07-31T11:11:53;3.67;;;2.30;;
35891;SDS011;21993;42.672;23.296;2023-07-31T11:14:19;2.87;;;2.00;;
35891;SDS011;21993;42.672;23.296;2023-07-31T11:16:45;2.23;;;2.00;;
35891;SDS011;21993;42.672;23.296;2023-07-31T11:19:10;2.67;;;2.47;;
35891;SDS011;21993;42.672;23.296;2023-07-31T11:21:36;2.40;;;2.20;;
35891;SDS011;21993;42.672;23.296;2023-07-31T11:24:01;2.50;;;2.30;;
35891;SDS011;21993;42.672;23.296;2023-07-31T11:26:27;2.47;;;2.20;;
35891;SDS011;21993;42.672;23.296;2023-07-31T11:28:52;3.13;;;2.37;;
35891;SDS011;21993;42.672;23.296;2023-07-31T11:31:18;2.50;;;2.30;;
35891;SDS011;21993;42.672;23.296;2023-07-31T11:33:44;2.80;;;2.30;;
35891;SDS011;21993;42.672;23.296;2023-07-31T11:36:16;5.47;;;2.40;;
35891;SDS011;21993;42.672;23.296;2023-07-31T11:38:43;2.57;;;2.37;;
35891;SDS011;21993;42.672;23.296;2023-07-31T11:41:08;5.93;;;3.27;;
35891;SDS011;21993;42.672;23.296;2023-07-31T11:43:34;4.50;;;2.60;;
35891;SDS011;21993;42.672;23.296;2023-07-31T11:46:01;5.23;;;2.80;;
35891;SDS011;21993;42.672;23.296;2023-07-31T11:48:31;3.03;;;2.73;;
35891;SDS011;21993;42.672;23.296;2023-07-31T11:51:05;3.20;;;2.90;;
35891;SDS011;21993;42.672;23.296;2023-07-31T11:56:04;3.70;;;2.83;;
35891;SDS011;21993;42.672;23.296;2023-07-31T11:58:32;2.90;;;2.70;;
35891;SDS011;21993;42.672;23.296;2023-07-31T12:00:59;4.17;;;3.20;;
35891;SDS011;21993;42.672;23.296;2023-07-31T12:03:25;3.77;;;3.00;;
35891;SDS011;21993;42.672;23.296;2023-07-31T12:05:53;3.93;;;2.60;;
35891;SDS011;21993;42.672;23.296;2023-07-31T12:08:20;5.80;;;3.70;;
35891;SDS011;21993;42.672;23.296;2023-07-31T12:10:49;5.10;;;3.97;;
35891;SDS011;21993;42.672;23.296;2023-07-31T12:13:20;5.33;;;4.20;;
35891;SDS011;21993;42.672;23.296;2023-07-31T12:15:47;4.80;;;4.10;;
35891;SDS011;21993;42.672;23.296;2023-07-31T12:18:13;5.17;;;4.10;;
35891;SDS011;21993;42.672;23.296;2023-07-31T12:20:43;5.53;;;4.90;;
35891;SDS011;21993;42.672;23.296;2023-07-31T12:23:22;7.23;;;5.60;;
35891;SDS011;21993;42.672;23.296;2023-07-31T12:28:40;5.80;;;5.20;;
35891;SDS011;21993;42.672;23.296;2023-07-31T12:31:10;6.07;;;5.47;;
35891;SDS011;21993;42.672;23.296;2023-07-31T12:33:37;5.57;;;4.90;;
35891;SDS011;21993;42.672;23.296;2023-07-31T12:36:06;6.17;;;4.70;;
35891;SDS011;21993;42.672;23.296;2023-07-31T12:38:33;5.13;;;4.67;;
35891;SDS011;21993;42.672;23.296;2023-07-31T12:40:59;5.67;;;5.00;;
35891;SDS011;21993;42.672;23.296;2023-07-31T12:43:24;5.97;;;4.73;;
35891;SDS011;21993;42.672;23.296;2023-07-31T12:45:50;5.13;;;4.63;;
35891;SDS011;21993;42.672;23.296;2023-07-31T12:48:15;8.10;;;4.17;;
35891;SDS011;21993;42.672;23.296;2023-07-31T12:50:41;6.00;;;5.37;;
35891;SDS011;21993;42.672;23.296;2023-07-31T12:53:06;4.73;;;4.33;;
35891;SDS011;21993;42.672;23.296;2023-07-31T12:55:32;5.60;;;4.83;;
35891;SDS011;21993;42.672;23.296;2023-07-31T12:58:01;6.70;;;4.67;;
35891;SDS011;21993;42.672;23.296;2023-07-31T13:00:27;6.07;;;5.07;;
35891;SDS011;21993;42.672;23.296;2023-07-31T13:02:53;9.20;;;4.90;;
35891;SDS011;21993;42.672;23.296;2023-07-31T13:05:18;5.97;;;5.37;;
35891;SDS011;21993;42.672;23.296;2023-07-31T13:07:47;6.30;;;5.77;;
35891;SDS011;21993;42.672;23.296;2023-07-31T13:10:13;6.73;;;5.50;;
35891;SDS011;21993;42.672;23.296;2023-07-31T13:12:38;7.60;;;5.30;;
35891;SDS011;21993;42.672;23.296;2023-07-31T13:15:04;8.20;;;5.30;;
35891;SDS011;21993;42.672;23.296;2023-07-31T13:17:30;6.20;;;5.60;;
35891;SDS011;21993;42.672;23.296;2023-07-31T13:19:56;6.00;;;5.40;;
35891;SDS011;21993;42.672;23.296;2023-07-31T13:22:22;7.73;;;5.27;;
35891;SDS011;21993;42.672;23.296;2023-07-31T13:24:47;6.50;;;5.50;;
35891;SDS011;21993;42.672;23.296;2023-07-31T13:27:13;10.67;;;4.70;;
35891;SDS011;21993;42.672;23.296;2023-07-31T13:29:39;5.90;;;5.27;;
35891;SDS011;21993;42.672;23.296;2023-07-31T13:32:04;5.80;;;5.23;;
35891;SDS011;21993;42.672;23.296;2023-07-31T13:34:30;6.07;;;4.63;;
35891;SDS011;21993;42.672;23.296;2023-07-31T13:36:55;4.80;;;4.40;;
35891;SDS011;21993;42.672;23.296;2023-07-31T13:39:21;5.60;;;4.50;;
35891;SDS011;21993;42.672;23.296;2023-07-31T13:41:46;6.00;;;4.90;;
35891;SDS011;21993;42.672;23.296;2023-07-31T13:44:12;4.90;;;3.93;;
35891;SDS011;21993;42.672;23.296;2023-07-31T13:46:37;6.17;;;4.80;;
35891;SDS011;21993;42.672;23.296;2023-07-31T13:49:03;7.37;;;4.40;;
35891;SDS011;21993;42.672;23.296;2023-07-31T13:51:28;7.30;;;4.67;;
35891;SDS011;21993;42.672;23.296;2023-07-31T13:53:54;6.13;;;3.90;;
35891;SDS011;21993;42.672;23.296;2023-07-31T13:56:19;4.80;;;4.30;;
35891;SDS011;21993;42.672;23.296;2023-07-31T13:58:44;6.43;;;4.30;;
35891;SDS011;21993;42.672;23.296;2023-07-31T14:01:10;4.60;;;3.70;;
35891;SDS011;21993;42.672;23.296;2023-07-31T14:03:35;5.23;;;4.73;;
35891;SDS011;21993;42.672;23.296;2023-07-31T14:06:01;5.40;;;4.73;;
35891;SDS011;21993;42.672;23.296;2023-07-31T14:08:26;4.40;;;4.00;;
35891;SDS011;21993;42.672;23.296;2023-07-31T14:10:52;5.63;;;4.60;;
35891;SDS011;21993;42.672;23.296;2023-07-31T14:13:17;5.13;;;4.63;;
35891;SDS011;21993;42.672;23.296;2023-07-31T14:15:42;4.63;;;4.17;;
35891;SDS011;21993;42.672;23.296;2023-07-31T14:18:08;6.97;;;4.50;;
35891;SDS011;21993;42.672;23.296;2023-07-31T14:20:34;4.60;;;4.20;;
35891;SDS011;21993;42.672;23.296;2023-07-31T14:23:00;5.60;;;4.10;;
35891;SDS011;21993;42.672;23.296;2023-07-31T14:25:26;5.47;;;4.07;;
35891;SDS011;21993;42.672;23.296;2023-07-31T14:27:51;4.30;;;3.90;;
35891;SDS011;21993;42.672;23.296;2023-07-31T14:30:17;7.10;;;3.87;;
35891;SDS011;21993;42.672;23.296;2023-07-31T14:32:43;4.30;;;3.90;;
35891;SDS011;21993;42.672;23.296;2023-07-31T14:35:09;5.90;;;3.97;;